Osg Courageous — WDF7122 — position and weather

sailwx.info

Track history (hours):
 
Tides and Currents Weather Stations Pressure Air Temp Water Temp Dewpoint Dewpoint Depression Visibility Wind Speed Wind Dir Waves Ship Positions

Osg Courageous

Owner: OSG Ship Management, Inc, Tampa, FL. More information available from US FCC via Universal Licensing System and Coast Guard Vessel Documentation Center.

Last reported at 2017-Sep-17 04:05 UTC. Time now 2017-Sep-25 00:54 UTC.
Position N 25°27' W 080°02'.

Length 187 m; draft 11 m.

Type: Tanker. MMSI: 367481310.

Date/timePositionNaut miles runAvg speedWind from/ knotsBaromVisibWave heightAir tempDewpointWater temp
2017-Sep-17 04:05N 25°27' W 080°02'110.7
2017-Sep-17 03:59N 25°28' W 080°02'510.1
2017-Sep-17 03:30N 25°33' W 080°02'510.0
2017-Sep-17 03:00N 25°38' W 080°02'5 9.2
2017-Sep-17 02:30N 25°42' W 080°01'4 8.9
2017-Sep-17 02:00N 25°47' W 080°01'4 8.9
2017-Sep-17 01:30N 25°51' W 080°01'5 8.9
2017-Sep-17 01:00N 25°56' W 080°01'4 8.5
2017-Sep-17 00:30N 25°60' W 080°01'4 9.1
2017-Sep-17 00:00N 26°04' W 080°00'4 8.8
2017-Sep-16 23:30N 26°09' W 080°00'4 8.6
2017-Sep-16 23:00N 26°13' W 080°00'38 8.4
2017-Sep-16 18:30N 26°51' W 079°58'4 7.5
2017-Sep-16 18:00N 26°55' W 079°58'3 7.0
2017-Sep-16 17:30N 26°58' W 079°59'4 8.6
2017-Sep-16 17:00N 27°02' W 080°00'280 9.2
2017-Sep-15 10:37N 31°42' W 080°09'1 9.8
2017-Sep-15 10:29N 31°43' W 080°09'5 9.7
2017-Sep-15 10:00N 31°48' W 080°07'5 9.7
2017-Sep-15 09:29N 31°52' W 080°04'5 9.6
2017-Sep-15 09:00N 31°56' W 080°02'5 9.6
2017-Sep-15 08:29N 32°01' W 079°60'5 9.6
2017-Sep-15 08:00N 32°05' W 079°58'5 9.6
2017-Sep-15 07:26N 32°10' W 079°55'4 9.7
2017-Sep-15 07:00N 32°14' W 079°53'5 9.7
2017-Sep-15 06:30N 32°19' W 079°51'5 9.7
2017-Sep-15 06:00N 32°23' W 079°49'6 9.7
2017-Sep-15 05:26N 32°28' W 079°46'4 9.8
2017-Sep-15 05:00N 32°32' W 079°44'9 8.0
2017-Sep-15 03:52N 32°41' W 079°43'410.3
2017-Sep-15 03:29N 32°43' W 079°47'610.4
2017-Sep-15 02:58N 32°46' W 079°53'5 0.2
2017-Sep-14 01:08N 32°43' W 079°48'7 9.0
2017-Sep-14 00:23N 32°40' W 079°41'4 3.8
2017-Sep-13 23:23N 32°42' W 079°37'  
2017-Sep-11 14:38N 38°30' W 074°47'2 7.7
2017-Sep-11 14:25N 38°31' W 074°49'3 7.6
2017-Sep-11 14:00N 38°34' W 074°51'4 7.5
2017-Sep-11 13:29N 38°37' W 074°54'4 7.8
2017-Sep-11 13:00N 38°40' W 074°56'4 7.9
2017-Sep-11 12:30N 38°43' W 074°59'5 9.8
2017-Sep-11 12:00N 38°47' W 075°03'510.9
2017-Sep-11 11:30N 38°52' W 075°06'4 7.2
2017-Sep-11 11:00N 38°55' W 075°08'0 0.1
2017-Sep-11 10:30N 38°55' W 075°08'0 0.0
2017-Sep-11 10:00N 38°55' W 075°08'0 0.0
2017-Sep-11 09:30N 38°55' W 075°08'0 0.0
2017-Sep-11 08:57N 38°55' W 075°08'0 0.0
2017-Sep-11 08:30N 38°55' W 075°08'0 0.0
2017-Sep-11 08:00N 38°55' W 075°08'0 0.0
2017-Sep-11 07:27N 38°55' W 075°08'0 0.1
2017-Sep-11 06:57N 38°55' W 075°08'0 0.1
2017-Sep-11 06:30N 38°55' W 075°08'0 0.2
2017-Sep-11 05:51N 38°55' W 075°08'0 0.1
2017-Sep-11 04:39N 38°55' W 075°08'0 0.0
2017-Sep-10 23:30N 38°55' W 075°08'0 0.1
2017-Sep-10 23:00N 38°55' W 075°08'0 0.0
2017-Sep-10 22:27N 38°55' W 075°08'0 0.0
2017-Sep-10 21:57N 38°55' W 075°08'0 0.0
2017-Sep-10 12:45N 38°55' W 075°08'0 0.1
2017-Sep-10 10:57N 38°55' W 075°08'0 0.1
2017-Sep-10 10:21N 38°55' W 075°08'0 0.1
2017-Sep-10 10:00N 38°55' W 075°08'0 0.0
2017-Sep-10 09:30N 38°55' W 075°08'0 0.0
2017-Sep-10 09:00N 38°55' W 075°08'0 0.0
2017-Sep-10 08:24N 38°55' W 075°08'0 0.0
2017-Sep-10 07:57N 38°55' W 075°08'0 0.0
2017-Sep-10 07:30N 38°55' W 075°08'0 0.0
2017-Sep-10 07:00N 38°55' W 075°08'0 0.0
2017-Sep-10 06:27N 38°55' W 075°08'0 0.0
2017-Sep-10 05:57N 38°55' W 075°08'0 0.0
2017-Sep-10 05:27N 38°55' W 075°08'0 0.2
2017-Sep-10 04:15N 38°55' W 075°08'0 0.1
2017-Sep-10 04:00N 38°55' W 075°08'0 0.0
2017-Sep-10 01:03N 38°55' W 075°08'0 0.1
2017-Sep-10 00:51N 38°55' W 075°08'0 0.3
2017-Sep-10 00:15N 38°55' W 075°08'0 0.6
2017-Sep-10 00:00N 38°55' W 075°08'3 6.6
2017-Sep-09 23:30N 38°53' W 075°05'  
Track history (hours):
 
Tides and Currents Weather Stations Pressure Air Temp Water Temp Dewpoint Dewpoint Depression Visibility Wind Speed Wind Dir Waves Ship Positions

Osg Courageous

Owner: OSG Ship Management, Inc, Tampa, FL. More information available from US FCC via Universal Licensing System and Coast Guard Vessel Documentation Center.

Last reported at 2017-Sep-17 04:05 UTC. Time now 2017-Sep-25 00:54 UTC.
Position N 25°27' W 080°02'.

Length 187 m; draft 11 m.

Type: Tanker. MMSI: 367481310.

Date/timePositionNaut miles runAvg speedWind from/ knotsBaromVisibWave heightAir tempDewpointWater temp
2017-Sep-17 04:05N 25°27' W 080°02'110.7
2017-Sep-17 03:59N 25°28' W 080°02'510.1
2017-Sep-17 03:30N 25°33' W 080°02'510.0
2017-Sep-17 03:00N 25°38' W 080°02'5 9.2
2017-Sep-17 02:30N 25°42' W 080°01'4 8.9
2017-Sep-17 02:00N 25°47' W 080°01'4 8.9
2017-Sep-17 01:30N 25°51' W 080°01'5 8.9
2017-Sep-17 01:00N 25°56' W 080°01'4 8.5
2017-Sep-17 00:30N 25°60' W 080°01'4 9.1
2017-Sep-17 00:00N 26°04' W 080°00'4 8.8
2017-Sep-16 23:30N 26°09' W 080°00'4 8.6
2017-Sep-16 23:00N 26°13' W 080°00'38 8.4
2017-Sep-16 18:30N 26°51' W 079°58'4 7.5
2017-Sep-16 18:00N 26°55' W 079°58'3 7.0
2017-Sep-16 17:30N 26°58' W 079°59'4 8.6
2017-Sep-16 17:00N 27°02' W 080°00'280 9.2
2017-Sep-15 10:37N 31°42' W 080°09'1 9.8
2017-Sep-15 10:29N 31°43' W 080°09'5 9.7
2017-Sep-15 10:00N 31°48' W 080°07'5 9.7
2017-Sep-15 09:29N 31°52' W 080°04'5 9.6
2017-Sep-15 09:00N 31°56' W 080°02'5 9.6
2017-Sep-15 08:29N 32°01' W 079°60'5 9.6
2017-Sep-15 08:00N 32°05' W 079°58'5 9.6
2017-Sep-15 07:26N 32°10' W 079°55'4 9.7
2017-Sep-15 07:00N 32°14' W 079°53'5 9.7
2017-Sep-15 06:30N 32°19' W 079°51'5 9.7
2017-Sep-15 06:00N 32°23' W 079°49'6 9.7
2017-Sep-15 05:26N 32°28' W 079°46'4 9.8
2017-Sep-15 05:00N 32°32' W 079°44'9 8.0
2017-Sep-15 03:52N 32°41' W 079°43'410.3
2017-Sep-15 03:29N 32°43' W 079°47'610.4
2017-Sep-15 02:58N 32°46' W 079°53'5 0.2
2017-Sep-14 01:08N 32°43' W 079°48'7 9.0
2017-Sep-14 00:23N 32°40' W 079°41'4 3.8
2017-Sep-13 23:23N 32°42' W 079°37'  
2017-Sep-11 14:38N 38°30' W 074°47'2 7.7
2017-Sep-11 14:25N 38°31' W 074°49'3 7.6
2017-Sep-11 14:00N 38°34' W 074°51'4 7.5
2017-Sep-11 13:29N 38°37' W 074°54'4 7.8
2017-Sep-11 13:00N 38°40' W 074°56'4 7.9
2017-Sep-11 12:30N 38°43' W 074°59'5 9.8
2017-Sep-11 12:00N 38°47' W 075°03'510.9
2017-Sep-11 11:30N 38°52' W 075°06'4 7.2
2017-Sep-11 11:00N 38°55' W 075°08'0 0.1
2017-Sep-11 10:30N 38°55' W 075°08'0 0.0
2017-Sep-11 10:00N 38°55' W 075°08'0 0.0
2017-Sep-11 09:30N 38°55' W 075°08'0 0.0
2017-Sep-11 08:57N 38°55' W 075°08'0 0.0
2017-Sep-11 08:30N 38°55' W 075°08'0 0.0
2017-Sep-11 08:00N 38°55' W 075°08'0 0.0
2017-Sep-11 07:27N 38°55' W 075°08'0 0.1
2017-Sep-11 06:57N 38°55' W 075°08'0 0.1
2017-Sep-11 06:30N 38°55' W 075°08'0 0.2
2017-Sep-11 05:51N 38°55' W 075°08'0 0.1
2017-Sep-11 04:39N 38°55' W 075°08'0 0.0
2017-Sep-10 23:30N 38°55' W 075°08'0 0.1
2017-Sep-10 23:00N 38°55' W 075°08'0 0.0
2017-Sep-10 22:27N 38°55' W 075°08'0 0.0
2017-Sep-10 21:57N 38°55' W 075°08'0 0.0
2017-Sep-10 12:45N 38°55' W 075°08'0 0.1
2017-Sep-10 10:57N 38°55' W 075°08'0 0.1
2017-Sep-10 10:21N 38°55' W 075°08'0 0.1
2017-Sep-10 10:00N 38°55' W 075°08'0 0.0
2017-Sep-10 09:30N 38°55' W 075°08'0 0.0
2017-Sep-10 09:00N 38°55' W 075°08'0 0.0
2017-Sep-10 08:24N 38°55' W 075°08'0 0.0
2017-Sep-10 07:57N 38°55' W 075°08'0 0.0
2017-Sep-10 07:30N 38°55' W 075°08'0 0.0
2017-Sep-10 07:00N 38°55' W 075°08'0 0.0
2017-Sep-10 06:27N 38°55' W 075°08'0 0.0
2017-Sep-10 05:57N 38°55' W 075°08'0 0.0
2017-Sep-10 05:27N 38°55' W 075°08'0 0.2
2017-Sep-10 04:15N 38°55' W 075°08'0 0.1
2017-Sep-10 04:00N 38°55' W 075°08'0 0.0
2017-Sep-10 01:03N 38°55' W 075°08'0 0.1
2017-Sep-10 00:51N 38°55' W 075°08'0 0.3
2017-Sep-10 00:15N 38°55' W 075°08'0 0.6
2017-Sep-10 00:00N 38°55' W 075°08'3 6.6
2017-Sep-09 23:30N 38°53' W 075°05'  

Dump ship's entire track history